sensor_id;sensor_type;location;lat;lon;timestamp;temperature;humidity
66610;DHT22;53468;48.276;14.416;2023-02-15T00:01:08;1.20;99.90
66610;DHT22;53468;48.276;14.416;2023-02-15T00:06:12;1.30;99.90
66610;DHT22;53468;48.276;14.416;2023-02-15T00:11:17;1.30;99.90
66610;DHT22;53468;48.276;14.416;2023-02-15T00:16:41;1.20;99.90
66610;DHT22;53468;48.276;14.416;2023-02-15T00:21:45;1.30;99.90
66610;DHT22;53468;48.276;14.416;2023-02-15T00:26:47;1.30;99.90
66610;DHT22;53468;48.276;14.416;2023-02-15T00:31:50;1.20;99.90
66610;DHT22;53468;48.276;14.416;2023-02-15T00:36:54;1.20;99.90
66610;DHT22;53468;48.276;14.416;2023-02-15T00:41:56;1.20;99.90
66610;DHT22;53468;48.276;14.416;2023-02-15T00:46:58;1.20;99.90
66610;DHT22;53468;48.276;14.416;2023-02-15T00:52:02;1.20;99.90
66610;DHT22;53468;48.276;14.416;2023-02-15T00:57:04;1.20;99.90
66610;DHT22;53468;48.276;14.416;2023-02-15T01:02:07;1.30;99.90
66610;DHT22;53468;48.276;14.416;2023-02-15T01:07:10;1.30;99.90
66610;DHT22;53468;48.276;14.416;2023-02-15T01:12:12;1.30;99.90
66610;DHT22;53468;48.276;14.416;2023-02-15T01:17:14;1.40;99.90
66610;DHT22;53468;48.276;14.416;2023-02-15T01:22:18;1.50;99.90
66610;DHT22;53468;48.276;14.416;2023-02-15T01:27:21;1.40;99.90
66610;DHT22;53468;48.276;14.416;2023-02-15T01:32:23;1.40;99.90
66610;DHT22;53468;48.276;14.416;2023-02-15T01:37:27;1.40;99.90
66610;DHT22;53468;48.276;14.416;2023-02-15T01:42:29;1.40;99.90
66610;DHT22;53468;48.276;14.416;2023-02-15T01:47:38;1.50;99.90
66610;DHT22;53468;48.276;14.416;2023-02-15T01:52:46;1.50;99.90
66610;DHT22;53468;48.276;14.416;2023-02-15T01:57:51;1.50;99.90
66610;DHT22;53468;48.276;14.416;2023-02-15T02:02:55;1.50;99.90
66610;DHT22;53468;48.276;14.416;2023-02-15T02:08:01;1.60;99.90
66610;DHT22;53468;48.276;14.416;2023-02-15T02:13:05;1.60;99.90
66610;DHT22;53468;48.276;14.416;2023-02-15T02:18:21;1.60;99.90
66610;DHT22;53468;48.276;14.416;2023-02-15T02:23:41;1.60;99.90
66610;DHT22;53468;48.276;14.416;2023-02-15T02:34:25;1.70;99.90
66610;DHT22;53468;48.276;14.416;2023-02-15T02:39:36;1.70;99.90
66610;DHT22;53468;48.276;14.416;2023-02-15T02:44:43;1.70;99.90
66610;DHT22;53468;48.276;14.416;2023-02-15T02:49:46;1.70;99.90
66610;DHT22;53468;48.276;14.416;2023-02-15T02:54:49;1.70;99.90
66610;DHT22;53468;48.276;14.416;2023-02-15T02:59:52;1.80;99.90
66610;DHT22;53468;48.276;14.416;2023-02-15T03:04:59;1.70;99.90
66610;DHT22;53468;48.276;14.416;2023-02-15T03:10:05;1.70;99.90
66610;DHT22;53468;48.276;14.416;2023-02-15T03:15:11;1.80;99.90
66610;DHT22;53468;48.276;14.416;2023-02-15T03:20:21;1.80;99.90
66610;DHT22;53468;48.276;14.416;2023-02-15T03:25:30;1.80;99.90
66610;DHT22;53468;48.276;14.416;2023-02-15T03:30:35;1.80;99.90
66610;DHT22;53468;48.276;14.416;2023-02-15T03:35:44;1.80;99.90
66610;DHT22;53468;48.276;14.416;2023-02-15T03:40:48;1.70;99.90
66610;DHT22;53468;48.276;14.416;2023-02-15T03:46:13;1.80;99.90
66610;DHT22;53468;48.276;14.416;2023-02-15T03:51:21;1.70;99.90
66610;DHT22;53468;48.276;14.416;2023-02-15T03:56:38;1.70;99.90
66610;DHT22;53468;48.276;14.416;2023-02-15T04:01:47;1.70;99.90
66610;DHT22;53468;48.276;14.416;2023-02-15T04:07:02;1.70;99.90
66610;DHT22;53468;48.276;14.416;2023-02-15T04:12:04;1.70;99.90
66610;DHT22;53468;48.276;14.416;2023-02-15T04:17:07;1.70;99.90
66610;DHT22;53468;48.276;14.416;2023-02-15T04:22:11;1.80;99.90
66610;DHT22;53468;48.276;14.416;2023-02-15T04:27:30;1.80;99.90
66610;DHT22;53468;48.276;14.416;2023-02-15T04:32:32;1.80;99.90
66610;DHT22;53468;48.276;14.416;2023-02-15T04:37:37;1.80;99.90
66610;DHT22;53468;48.276;14.416;2023-02-15T04:42:39;1.80;99.90
66610;DHT22;53468;48.276;14.416;2023-02-15T04:47:41;1.80;99.90
66610;DHT22;53468;48.276;14.416;2023-02-15T04:52:45;1.80;99.90
66610;DHT22;53468;48.276;14.416;2023-02-15T04:57:47;1.70;99.90
66610;DHT22;53468;48.276;14.416;2023-02-15T05:02:49;1.70;99.90
66610;DHT22;53468;48.276;14.416;2023-02-15T05:07:52;1.70;99.90
66610;DHT22;53468;48.276;14.416;2023-02-15T05:12:54;1.80;99.90
66610;DHT22;53468;48.276;14.416;2023-02-15T05:17:56;1.70;99.90
66610;DHT22;53468;48.276;14.416;2023-02-15T05:23:00;1.80;99.90
66610;DHT22;53468;48.276;14.416;2023-02-15T05:28:02;1.70;99.90
66610;DHT22;53468;48.276;14.416;2023-02-15T05:33:23;1.70;99.90
66610;DHT22;53468;48.276;14.416;2023-02-15T05:38:26;1.70;99.90
66610;DHT22;53468;48.276;14.416;2023-02-15T05:43:28;1.70;99.90
66610;DHT22;53468;48.276;14.416;2023-02-15T05:48:32;1.80;99.90
66610;DHT22;53468;48.276;14.416;2023-02-15T05:53:37;1.80;99.90
66610;DHT22;53468;48.276;14.416;2023-02-15T05:58:40;1.80;99.90
66610;DHT22;53468;48.276;14.416;2023-02-15T06:03:43;1.70;99.90
66610;DHT22;53468;48.276;14.416;2023-02-15T06:08:46;1.70;99.90
66610;DHT22;53468;48.276;14.416;2023-02-15T06:13:49;1.60;99.90
66610;DHT22;53468;48.276;14.416;2023-02-15T06:18:51;1.70;99.90
66610;DHT22;53468;48.276;14.416;2023-02-15T06:23:55;1.70;99.90
66610;DHT22;53468;48.276;14.416;2023-02-15T06:28:57;1.70;99.90
66610;DHT22;53468;48.276;14.416;2023-02-15T06:33:59;1.70;99.90
66610;DHT22;53468;48.276;14.416;2023-02-15T06:39:04;1.70;99.90
66610;DHT22;53468;48.276;14.416;2023-02-15T06:44:06;1.70;99.90
66610;DHT22;53468;48.276;14.416;2023-02-15T06:49:09;1.60;99.90
66610;DHT22;53468;48.276;14.416;2023-02-15T06:54:13;1.70;99.90
66610;DHT22;53468;48.276;14.416;2023-02-15T06:59:15;1.60;99.90
66610;DHT22;53468;48.276;14.416;2023-02-15T07:04:17;1.70;99.90
66610;DHT22;53468;48.276;14.416;2023-02-15T07:09:21;1.70;99.90
66610;DHT22;53468;48.276;14.416;2023-02-15T07:14:23;1.70;99.90
66610;DHT22;53468;48.276;14.416;2023-02-15T07:19:25;1.70;99.90
66610;DHT22;53468;48.276;14.416;2023-02-15T07:24:29;1.70;99.90
66610;DHT22;53468;48.276;14.416;2023-02-15T07:29:31;1.80;99.90
66610;DHT22;53468;48.276;14.416;2023-02-15T07:34:33;1.70;99.90
66610;DHT22;53468;48.276;14.416;2023-02-15T07:39:37;1.70;99.90
66610;DHT22;53468;48.276;14.416;2023-02-15T07:44:39;1.80;99.90
66610;DHT22;53468;48.276;14.416;2023-02-15T07:49:41;1.80;99.90
66610;DHT22;53468;48.276;14.416;2023-02-15T07:54:45;1.80;99.90
66610;DHT22;53468;48.276;14.416;2023-02-15T07:59:47;1.80;99.90
66610;DHT22;53468;48.276;14.416;2023-02-15T08:04:49;1.90;99.90
66610;DHT22;53468;48.276;14.416;2023-02-15T08:09:53;2.00;99.90
66610;DHT22;53468;48.276;14.416;2023-02-15T08:14:55;2.00;99.90
66610;DHT22;53468;48.276;14.416;2023-02-15T08:19:57;2.00;99.90
66610;DHT22;53468;48.276;14.416;2023-02-15T08:25:01;1.90;99.90
66610;DHT22;53468;48.276;14.416;2023-02-15T08:30:03;1.90;99.90
66610;DHT22;53468;48.276;14.416;2023-02-15T08:35:06;2.00;99.90
66610;DHT22;53468;48.276;14.416;2023-02-15T08:40:11;2.00;99.90
66610;DHT22;53468;48.276;14.416;2023-02-15T08:45:14;2.10;99.90
66610;DHT22;53468;48.276;14.416;2023-02-15T08:50:16;2.10;99.90
66610;DHT22;53468;48.276;14.416;2023-02-15T08:55:19;2.20;99.90
66610;DHT22;53468;48.276;14.416;2023-02-15T09:00:22;2.20;99.90
66610;DHT22;53468;48.276;14.416;2023-02-15T09:05:25;2.20;99.90
66610;DHT22;53468;48.276;14.416;2023-02-15T09:10:28;2.30;99.90
66610;DHT22;53468;48.276;14.416;2023-02-15T09:15:30;2.20;99.90
66610;DHT22;53468;48.276;14.416;2023-02-15T09:20:35;2.30;99.90
66610;DHT22;53468;48.276;14.416;2023-02-15T09:25:39;2.30;99.90
66610;DHT22;53468;48.276;14.416;2023-02-15T09:30:42;2.40;99.90
66610;DHT22;53468;48.276;14.416;2023-02-15T09:35:44;2.40;99.90
66610;DHT22;53468;48.276;14.416;2023-02-15T09:40:58;2.30;99.90
66610;DHT22;53468;48.276;14.416;2023-02-15T09:46:17;2.40;99.90
66610;DHT22;53468;48.276;14.416;2023-02-15T09:51:46;2.30;99.90
66610;DHT22;53468;48.276;14.416;2023-02-15T09:56:56;2.40;99.90
66610;DHT22;53468;48.276;14.416;2023-02-15T10:02:11;2.50;99.90
66610;DHT22;53468;48.276;14.416;2023-02-15T10:07:25;2.60;99.90
66610;DHT22;53468;48.276;14.416;2023-02-15T10:12:46;2.60;99.90
66610;DHT22;53468;48.276;14.416;2023-02-15T10:18:04;2.70;99.90
66610;DHT22;53468;48.276;14.416;2023-02-15T10:23:34;2.70;99.90
66610;DHT22;53468;48.276;14.416;2023-02-15T10:28:45;2.70;99.90
66610;DHT22;53468;48.276;14.416;2023-02-15T10:33:49;2.60;99.90
66610;DHT22;53468;48.276;14.416;2023-02-15T10:39:02;2.60;99.90
66610;DHT22;53468;48.276;14.416;2023-02-15T10:44:19;2.70;99.90
66610;DHT22;53468;48.276;14.416;2023-02-15T10:49:48;2.80;99.90
66610;DHT22;53468;48.276;14.416;2023-02-15T10:55:00;2.60;99.90
66610;DHT22;53468;48.276;14.416;2023-02-15T11:00:11;2.50;99.90
66610;DHT22;53468;48.276;14.416;2023-02-15T11:05:26;2.80;99.90
66610;DHT22;53468;48.276;14.416;2023-02-15T11:10:36;2.80;99.90
66610;DHT22;53468;48.276;14.416;2023-02-15T11:15:44;3.00;99.90
66610;DHT22;53468;48.276;14.416;2023-02-15T11:20:53;3.10;99.90
66610;DHT22;53468;48.276;14.416;2023-02-15T11:25:58;3.10;99.90
66610;DHT22;53468;48.276;14.416;2023-02-15T11:31:13;2.90;99.90
66610;DHT22;53468;48.276;14.416;2023-02-15T11:36:19;3.00;99.90
66610;DHT22;53468;48.276;14.416;2023-02-15T11:41:26;3.10;99.90
66610;DHT22;53468;48.276;14.416;2023-02-15T11:46:31;3.10;99.90
66610;DHT22;53468;48.276;14.416;2023-02-15T11:51:35;3.10;99.90
66610;DHT22;53468;48.276;14.416;2023-02-15T11:56:37;3.10;99.90
66610;DHT22;53468;48.276;14.416;2023-02-15T12:01:43;3.20;99.90
66610;DHT22;53468;48.276;14.416;2023-02-15T12:06:49;3.30;99.90
66610;DHT22;53468;48.276;14.416;2023-02-15T12:11:53;3.40;99.90
66610;DHT22;53468;48.276;14.416;2023-02-15T12:16:56;3.40;99.90
66610;DHT22;53468;48.276;14.416;2023-02-15T12:22:01;3.30;99.90
66610;DHT22;53468;48.276;14.416;2023-02-15T12:27:10;3.30;99.90
66610;DHT22;53468;48.276;14.416;2023-02-15T12:32:21;3.40;99.90
66610;DHT22;53468;48.276;14.416;2023-02-15T12:37:27;3.30;99.90
66610;DHT22;53468;48.276;14.416;2023-02-15T12:42:42;3.10;99.90
66610;DHT22;53468;48.276;14.416;2023-02-15T12:47:46;3.10;99.90
66610;DHT22;53468;48.276;14.416;2023-02-15T12:52:51;3.20;99.90
66610;DHT22;53468;48.276;14.416;2023-02-15T12:58:11;3.20;99.90
66610;DHT22;53468;48.276;14.416;2023-02-15T13:03:19;3.30;99.90
66610;DHT22;53468;48.276;14.416;2023-02-15T13:08:28;3.30;99.90
66610;DHT22;53468;48.276;14.416;2023-02-15T13:13:31;3.40;99.90
66610;DHT22;53468;48.276;14.416;2023-02-15T13:18:38;3.30;99.90
66610;DHT22;53468;48.276;14.416;2023-02-15T13:23:45;3.40;99.90
66610;DHT22;53468;48.276;14.416;2023-02-15T13:28:52;3.40;99.90
66610;DHT22;53468;48.276;14.416;2023-02-15T13:34:02;3.40;99.90
66610;DHT22;53468;48.276;14.416;2023-02-15T13:39:14;3.40;99.90
66610;DHT22;53468;48.276;14.416;2023-02-15T13:44:24;3.40;99.90
66610;DHT22;53468;48.276;14.416;2023-02-15T13:49:39;3.40;99.90
66610;DHT22;53468;48.276;14.416;2023-02-15T13:55:03;3.40;99.90
66610;DHT22;53468;48.276;14.416;2023-02-15T14:00:18;3.40;99.90
66610;DHT22;53468;48.276;14.416;2023-02-15T14:05:35;3.40;99.90
66610;DHT22;53468;48.276;14.416;2023-02-15T14:10:46;3.40;99.90
66610;DHT22;53468;48.276;14.416;2023-02-15T14:15:57;3.30;99.90
66610;DHT22;53468;48.276;14.416;2023-02-15T14:21:06;3.20;99.90
66610;DHT22;53468;48.276;14.416;2023-02-15T14:26:15;3.20;99.90
66610;DHT22;53468;48.276;14.416;2023-02-15T14:31:28;3.10;99.90
66610;DHT22;53468;48.276;14.416;2023-02-15T14:36:33;3.20;99.90
66610;DHT22;53468;48.276;14.416;2023-02-15T14:41:39;3.10;99.90
66610;DHT22;53468;48.276;14.416;2023-02-15T14:46:48;3.00;99.90
66610;DHT22;53468;48.276;14.416;2023-02-15T14:52:02;3.00;99.90
66610;DHT22;53468;48.276;14.416;2023-02-15T14:57:32;2.90;99.90
66610;DHT22;53468;48.276;14.416;2023-02-15T15:02:44;2.90;99.90
66610;DHT22;53468;48.276;14.416;2023-02-15T15:07:51;2.80;99.90
66610;DHT22;53468;48.276;14.416;2023-02-15T15:12:54;2.80;99.90
66610;DHT22;53468;48.276;14.416;2023-02-15T15:18:02;2.80;99.90
66610;DHT22;53468;48.276;14.416;2023-02-15T15:23:40;2.70;99.90
66610;DHT22;53468;48.276;14.416;2023-02-15T15:29:01;2.70;99.90
66610;DHT22;53468;48.276;14.416;2023-02-15T15:34:43;2.80;99.90
66610;DHT22;53468;48.276;14.416;2023-02-15T15:51:10;2.60;99.90
66610;DHT22;53468;48.276;14.416;2023-02-15T15:56:15;2.50;99.90
66610;DHT22;53468;48.276;14.416;2023-02-15T16:01:24;2.50;99.90
66610;DHT22;53468;48.276;14.416;2023-02-15T16:06:30;2.50;99.90
66610;DHT22;53468;48.276;14.416;2023-02-15T16:11:32;2.20;99.90
66610;DHT22;53468;48.276;14.416;2023-02-15T16:16:37;2.10;99.90
66610;DHT22;53468;48.276;14.416;2023-02-15T16:21:39;1.90;99.90
66610;DHT22;53468;48.276;14.416;2023-02-15T16:27:00;1.90;99.90
66610;DHT22;53468;48.276;14.416;2023-02-15T16:32:17;1.90;99.90
66610;DHT22;53468;48.276;14.416;2023-02-15T16:37:20;1.90;99.90
66610;DHT22;53468;48.276;14.416;2023-02-15T16:42:24;1.90;99.90
66610;DHT22;53468;48.276;14.416;2023-02-15T16:47:30;1.80;99.90
66610;DHT22;53468;48.276;14.416;2023-02-15T16:52:33;1.80;99.90
66610;DHT22;53468;48.276;14.416;2023-02-15T16:57:38;1.80;99.90
66610;DHT22;53468;48.276;14.416;2023-02-15T17:02:56;1.90;99.90
66610;DHT22;53468;48.276;14.416;2023-02-15T17:08:14;1.90;99.90
66610;DHT22;53468;48.276;14.416;2023-02-15T17:13:34;1.90;99.90
66610;DHT22;53468;48.276;14.416;2023-02-15T17:18:45;2.00;99.90
66610;DHT22;53468;48.276;14.416;2023-02-15T17:24:02;1.90;99.90
66610;DHT22;53468;48.276;14.416;2023-02-15T17:29:33;2.00;99.90
66610;DHT22;53468;48.276;14.416;2023-02-15T17:34:49;1.80;99.90
66610;DHT22;53468;48.276;14.416;2023-02-15T17:39:56;2.00;99.90
66610;DHT22;53468;48.276;14.416;2023-02-15T17:44:58;1.90;99.90
66610;DHT22;53468;48.276;14.416;2023-02-15T17:50:04;1.90;99.90
66610;DHT22;53468;48.276;14.416;2023-02-15T17:55:13;1.90;99.90
66610;DHT22;53468;48.276;14.416;2023-02-15T18:00:36;1.90;99.90
66610;DHT22;53468;48.276;14.416;2023-02-15T18:05:58;1.90;99.90
66610;DHT22;53468;48.276;14.416;2023-02-15T18:11:18;1.80;99.90
66610;DHT22;53468;48.276;14.416;2023-02-15T18:16:39;1.70;99.90
66610;DHT22;53468;48.276;14.416;2023-02-15T18:21:44;1.70;99.90
66610;DHT22;53468;48.276;14.416;2023-02-15T18:26:47;1.80;99.90
66610;DHT22;53468;48.276;14.416;2023-02-15T18:31:52;1.80;99.90
66610;DHT22;53468;48.276;14.416;2023-02-15T18:36:57;1.90;99.90
66610;DHT22;53468;48.276;14.416;2023-02-15T18:42:01;1.80;99.90
66610;DHT22;53468;48.276;14.416;2023-02-15T18:47:03;1.80;99.90
66610;DHT22;53468;48.276;14.416;2023-02-15T18:52:13;1.80;99.90
66610;DHT22;53468;48.276;14.416;2023-02-15T18:57:16;1.90;99.90
66610;DHT22;53468;48.276;14.416;2023-02-15T19:02:18;1.90;99.90
66610;DHT22;53468;48.276;14.416;2023-02-15T19:07:24;1.90;99.90
66610;DHT22;53468;48.276;14.416;2023-02-15T19:12:28;1.90;99.90
66610;DHT22;53468;48.276;14.416;2023-02-15T19:17:31;1.90;99.90
66610;DHT22;53468;48.276;14.416;2023-02-15T19:22:34;1.90;99.90
66610;DHT22;53468;48.276;14.416;2023-02-15T19:27:37;1.90;99.90
66610;DHT22;53468;48.276;14.416;2023-02-15T19:32:39;1.80;99.90
66610;DHT22;53468;48.276;14.416;2023-02-15T19:37:43;1.80;99.90
66610;DHT22;53468;48.276;14.416;2023-02-15T19:42:50;1.80;99.90
66610;DHT22;53468;48.276;14.416;2023-02-15T19:47:53;1.80;99.90
66610;DHT22;53468;48.276;14.416;2023-02-15T19:52:56;1.90;99.90
66610;DHT22;53468;48.276;14.416;2023-02-15T19:58:00;1.80;99.90
66610;DHT22;53468;48.276;14.416;2023-02-15T20:03:02;1.80;99.90
66610;DHT22;53468;48.276;14.416;2023-02-15T20:08:09;1.80;99.90
66610;DHT22;53468;48.276;14.416;2023-02-15T20:13:14;1.80;99.90
66610;DHT22;53468;48.276;14.416;2023-02-15T20:18:17;1.80;99.90
66610;DHT22;53468;48.276;14.416;2023-02-15T20:23:22;1.70;99.90
66610;DHT22;53468;48.276;14.416;2023-02-15T20:28:27;1.70;99.90
66610;DHT22;53468;48.276;14.416;2023-02-15T20:33:29;1.80;99.90
66610;DHT22;53468;48.276;14.416;2023-02-15T20:38:33;1.60;99.90
66610;DHT22;53468;48.276;14.416;2023-02-15T20:43:35;1.70;99.90
66610;DHT22;53468;48.276;14.416;2023-02-15T20:48:38;1.60;99.90
66610;DHT22;53468;48.276;14.416;2023-02-15T20:53:42;1.60;99.90
66610;DHT22;53468;48.276;14.416;2023-02-15T20:58:46;1.60;99.90
66610;DHT22;53468;48.276;14.416;2023-02-15T21:03:49;1.40;99.90
66610;DHT22;53468;48.276;14.416;2023-02-15T21:08:52;1.40;99.90
66610;DHT22;53468;48.276;14.416;2023-02-15T21:13:54;1.30;99.90
66610;DHT22;53468;48.276;14.416;2023-02-15T21:18:56;1.20;99.90
66610;DHT22;53468;48.276;14.416;2023-02-15T21:24:00;1.30;99.90
66610;DHT22;53468;48.276;14.416;2023-02-15T21:29:02;1.40;99.90
66610;DHT22;53468;48.276;14.416;2023-02-15T21:34:04;1.40;99.90
66610;DHT22;53468;48.276;14.416;2023-02-15T21:39:13;1.40;99.90
66610;DHT22;53468;48.276;14.416;2023-02-15T21:44:16;1.50;99.90
66610;DHT22;53468;48.276;14.416;2023-02-15T21:49:36;1.50;99.90
66610;DHT22;53468;48.276;14.416;2023-02-15T21:54:40;1.40;99.90
66610;DHT22;53468;48.276;14.416;2023-02-15T21:59:42;1.30;99.90
66610;DHT22;53468;48.276;14.416;2023-02-15T22:04:46;1.30;99.90
66610;DHT22;53468;48.276;14.416;2023-02-15T22:09:49;1.20;99.90
66610;DHT22;53468;48.276;14.416;2023-02-15T22:14:52;1.20;99.90
66610;DHT22;53468;48.276;14.416;2023-02-15T22:19:54;1.30;99.90
66610;DHT22;53468;48.276;14.416;2023-02-15T22:24:59;1.20;99.90
66610;DHT22;53468;48.276;14.416;2023-02-15T22:30:03;1.20;99.90
66610;DHT22;53468;48.276;14.416;2023-02-15T22:35:08;1.10;99.90
66610;DHT22;53468;48.276;14.416;2023-02-15T22:40:15;1.10;99.90
66610;DHT22;53468;48.276;14.416;2023-02-15T22:45:19;1.10;99.90
66610;DHT22;53468;48.276;14.416;2023-02-15T22:50:23;1.10;99.90
66610;DHT22;53468;48.276;14.416;2023-02-15T22:55:29;1.20;99.90
66610;DHT22;53468;48.276;14.416;2023-02-15T23:00:36;1.10;99.90
66610;DHT22;53468;48.276;14.416;2023-02-15T23:05:39;1.10;99.90
66610;DHT22;53468;48.276;14.416;2023-02-15T23:10:44;1.20;99.90
66610;DHT22;53468;48.276;14.416;2023-02-15T23:15:47;1.00;99.90
66610;DHT22;53468;48.276;14.416;2023-02-15T23:20:52;1.00;99.90
66610;DHT22;53468;48.276;14.416;2023-02-15T23:25:56;1.00;99.90
66610;DHT22;53468;48.276;14.416;2023-02-15T23:30:59;1.00;99.90
66610;DHT22;53468;48.276;14.416;2023-02-15T23:36:02;0.70;99.90
66610;DHT22;53468;48.276;14.416;2023-02-15T23:41:09;0.80;99.90
66610;DHT22;53468;48.276;14.416;2023-02-15T23:46:26;0.80;99.90
66610;DHT22;53468;48.276;14.416;2023-02-15T23:51:30;0.70;99.90
66610;DHT22;53468;48.276;14.416;2023-02-15T23:56:34;0.80;99.90
